sensor_id;sensor_type;location;lat;lon;timestamp;temperature;humidity
7496;DHT22;3789;47.064;15.482;2022-08-19T00:02:00;18.20;99.90
7496;DHT22;3789;47.064;15.482;2022-08-19T00:04:34;18.20;99.90
7496;DHT22;3789;47.064;15.482;2022-08-19T00:07:12;18.20;99.90
7496;DHT22;3789;47.064;15.482;2022-08-19T00:09:42;18.20;99.90
7496;DHT22;3789;47.064;15.482;2022-08-19T00:12:23;18.20;99.90
7496;DHT22;3789;47.064;15.482;2022-08-19T00:14:52;18.20;99.90
7496;DHT22;3789;47.064;15.482;2022-08-19T00:17:22;18.20;99.90
7496;DHT22;3789;47.064;15.482;2022-08-19T00:19:51;18.30;99.90
7496;DHT22;3789;47.064;15.482;2022-08-19T00:22:21;18.30;99.90
7496;DHT22;3789;47.064;15.482;2022-08-19T00:24:50;18.40;99.90
7496;DHT22;3789;47.064;15.482;2022-08-19T00:27:22;18.40;99.90
7496;DHT22;3789;47.064;15.482;2022-08-19T00:29:59;18.40;99.90
7496;DHT22;3789;47.064;15.482;2022-08-19T00:32:30;18.40;99.90
7496;DHT22;3789;47.064;15.482;2022-08-19T00:35:03;18.30;99.90
7496;DHT22;3789;47.064;15.482;2022-08-19T00:37:30;18.20;99.90
7496;DHT22;3789;47.064;15.482;2022-08-19T00:39:59;18.30;99.90
7496;DHT22;3789;47.064;15.482;2022-08-19T00:42:29;18.30;99.90
7496;DHT22;3789;47.064;15.482;2022-08-19T00:44:57;18.30;99.90
7496;DHT22;3789;47.064;15.482;2022-08-19T00:47:26;18.30;99.90
7496;DHT22;3789;47.064;15.482;2022-08-19T00:49:57;18.30;99.90
7496;DHT22;3789;47.064;15.482;2022-08-19T00:52:32;18.30;99.90
7496;DHT22;3789;47.064;15.482;2022-08-19T00:55:05;18.40;99.90
7496;DHT22;3789;47.064;15.482;2022-08-19T00:57:41;18.40;99.90
7496;DHT22;3789;47.064;15.482;2022-08-19T01:00:12;18.40;99.90
7496;DHT22;3789;47.064;15.482;2022-08-19T01:02:44;18.30;99.90
7496;DHT22;3789;47.064;15.482;2022-08-19T01:05:22;18.20;99.90
7496;DHT22;3789;47.064;15.482;2022-08-19T01:07:58;18.10;99.90
7496;DHT22;3789;47.064;15.482;2022-08-19T01:10:30;18.10;99.90
7496;DHT22;3789;47.064;15.482;2022-08-19T01:13:04;18.10;99.90
7496;DHT22;3789;47.064;15.482;2022-08-19T01:15:45;18.20;99.90
7496;DHT22;3789;47.064;15.482;2022-08-19T01:18:15;18.40;99.90
7496;DHT22;3789;47.064;15.482;2022-08-19T01:20:44;18.50;99.90
7496;DHT22;3789;47.064;15.482;2022-08-19T01:23:15;18.60;99.90
7496;DHT22;3789;47.064;15.482;2022-08-19T01:25:52;18.70;99.90
7496;DHT22;3789;47.064;15.482;2022-08-19T01:28:38;18.70;99.90
7496;DHT22;3789;47.064;15.482;2022-08-19T01:33:58;18.60;99.90
7496;DHT22;3789;47.064;15.482;2022-08-19T01:36:44;18.60;99.90
7496;DHT22;3789;47.064;15.482;2022-08-19T01:39:19;18.70;99.90
7496;DHT22;3789;47.064;15.482;2022-08-19T01:41:48;18.70;99.90
7496;DHT22;3789;47.064;15.482;2022-08-19T01:44:17;18.50;99.90
7496;DHT22;3789;47.064;15.482;2022-08-19T01:46:52;18.40;99.90
7496;DHT22;3789;47.064;15.482;2022-08-19T01:49:25;18.20;99.90
7496;DHT22;3789;47.064;15.482;2022-08-19T01:52:00;18.10;99.90
7496;DHT22;3789;47.064;15.482;2022-08-19T01:54:31;17.90;99.90
7496;DHT22;3789;47.064;15.482;2022-08-19T01:57:05;17.90;99.90
7496;DHT22;3789;47.064;15.482;2022-08-19T01:59:35;17.80;99.90
7496;DHT22;3789;47.064;15.482;2022-08-19T02:02:07;17.80;99.90
7496;DHT22;3789;47.064;15.482;2022-08-19T02:04:37;17.70;99.90
7496;DHT22;3789;47.064;15.482;2022-08-19T02:07:07;17.70;99.90
7496;DHT22;3789;47.064;15.482;2022-08-19T02:09:38;17.90;99.90
7496;DHT22;3789;47.064;15.482;2022-08-19T02:12:10;17.90;99.90
7496;DHT22;3789;47.064;15.482;2022-08-19T02:14:41;17.90;99.90
7496;DHT22;3789;47.064;15.482;2022-08-19T02:17:12;18.00;99.90
7496;DHT22;3789;47.064;15.482;2022-08-19T02:19:41;18.10;99.90
7496;DHT22;3789;47.064;15.482;2022-08-19T02:22:12;18.20;99.90
7496;DHT22;3789;47.064;15.482;2022-08-19T02:24:41;18.10;99.90
7496;DHT22;3789;47.064;15.482;2022-08-19T02:27:11;17.90;99.90
7496;DHT22;3789;47.064;15.482;2022-08-19T02:29:41;17.80;99.90
7496;DHT22;3789;47.064;15.482;2022-08-19T02:32:08;17.70;99.90
7496;DHT22;3789;47.064;15.482;2022-08-19T02:34:39;17.60;99.90
7496;DHT22;3789;47.064;15.482;2022-08-19T02:37:08;17.80;99.90
7496;DHT22;3789;47.064;15.482;2022-08-19T02:40:03;17.90;99.90
7496;DHT22;3789;47.064;15.482;2022-08-19T02:42:41;18.00;99.90
7496;DHT22;3789;47.064;15.482;2022-08-19T02:45:12;18.10;99.90
7496;DHT22;3789;47.064;15.482;2022-08-19T02:47:44;18.10;99.90
7496;DHT22;3789;47.064;15.482;2022-08-19T02:50:13;18.20;99.90
7496;DHT22;3789;47.064;15.482;2022-08-19T02:52:45;18.30;99.90
7496;DHT22;3789;47.064;15.482;2022-08-19T02:55:22;18.30;99.90
7496;DHT22;3789;47.064;15.482;2022-08-19T02:57:51;18.30;99.90
7496;DHT22;3789;47.064;15.482;2022-08-19T03:00:21;18.30;99.90
7496;DHT22;3789;47.064;15.482;2022-08-19T03:02:48;18.40;99.90
7496;DHT22;3789;47.064;15.482;2022-08-19T03:05:19;18.20;99.90
7496;DHT22;3789;47.064;15.482;2022-08-19T03:08:09;18.10;99.90
7496;DHT22;3789;47.064;15.482;2022-08-19T03:10:53;18.10;99.90
7496;DHT22;3789;47.064;15.482;2022-08-19T03:13:24;18.10;99.90
7496;DHT22;3789;47.064;15.482;2022-08-19T03:15:51;18.00;99.90
7496;DHT22;3789;47.064;15.482;2022-08-19T03:18:19;17.90;99.90
7496;DHT22;3789;47.064;15.482;2022-08-19T03:20:52;18.00;99.90
7496;DHT22;3789;47.064;15.482;2022-08-19T03:23:30;18.10;99.90
7496;DHT22;3789;47.064;15.482;2022-08-19T03:26:04;18.20;99.90
7496;DHT22;3789;47.064;15.482;2022-08-19T03:28:44;18.30;99.90
7496;DHT22;3789;47.064;15.482;2022-08-19T03:31:27;18.40;99.90
7496;DHT22;3789;47.064;15.482;2022-08-19T03:34:15;18.20;99.90
7496;DHT22;3789;47.064;15.482;2022-08-19T03:36:46;17.90;99.90
7496;DHT22;3789;47.064;15.482;2022-08-19T03:39:14;17.90;99.90
7496;DHT22;3789;47.064;15.482;2022-08-19T03:41:48;18.00;99.90
7496;DHT22;3789;47.064;15.482;2022-08-19T03:44:38;18.00;99.90
7496;DHT22;3789;47.064;15.482;2022-08-19T03:47:07;18.10;99.90
7496;DHT22;3789;47.064;15.482;2022-08-19T03:49:34;18.20;99.90
7496;DHT22;3789;47.064;15.482;2022-08-19T03:52:11;18.30;99.90
7496;DHT22;3789;47.064;15.482;2022-08-19T03:54:42;18.40;99.90
7496;DHT22;3789;47.064;15.482;2022-08-19T03:57:13;18.50;99.90
7496;DHT22;3789;47.064;15.482;2022-08-19T03:59:45;18.60;99.90
7496;DHT22;3789;47.064;15.482;2022-08-19T04:02:19;18.60;99.90
7496;DHT22;3789;47.064;15.482;2022-08-19T04:04:54;18.60;99.90
7496;DHT22;3789;47.064;15.482;2022-08-19T04:07:23;18.60;99.90
7496;DHT22;3789;47.064;15.482;2022-08-19T04:09:53;18.60;99.90
7496;DHT22;3789;47.064;15.482;2022-08-19T04:12:22;18.60;99.90
7496;DHT22;3789;47.064;15.482;2022-08-19T04:14:49;18.40;99.90
7496;DHT22;3789;47.064;15.482;2022-08-19T04:17:17;17.90;99.90
7496;DHT22;3789;47.064;15.482;2022-08-19T04:19:47;17.80;99.90
7496;DHT22;3789;47.064;15.482;2022-08-19T04:22:24;17.70;99.90
7496;DHT22;3789;47.064;15.482;2022-08-19T04:24:55;17.60;99.90
7496;DHT22;3789;47.064;15.482;2022-08-19T04:27:24;17.50;99.90
7496;DHT22;3789;47.064;15.482;2022-08-19T04:29:53;17.50;99.90
7496;DHT22;3789;47.064;15.482;2022-08-19T04:32:22;17.50;99.90
7496;DHT22;3789;47.064;15.482;2022-08-19T04:34:50;17.60;99.90
7496;DHT22;3789;47.064;15.482;2022-08-19T04:37:40;17.80;99.90
7496;DHT22;3789;47.064;15.482;2022-08-19T04:40:10;18.00;99.90
7496;DHT22;3789;47.064;15.482;2022-08-19T04:42:58;18.30;99.90
7496;DHT22;3789;47.064;15.482;2022-08-19T04:45:28;18.60;99.90
7496;DHT22;3789;47.064;15.482;2022-08-19T04:48:05;18.70;99.90
7496;DHT22;3789;47.064;15.482;2022-08-19T04:50:55;18.80;99.90
7496;DHT22;3789;47.064;15.482;2022-08-19T04:53:31;18.90;99.90
7496;DHT22;3789;47.064;15.482;2022-08-19T04:56:20;19.10;99.90
7496;DHT22;3789;47.064;15.482;2022-08-19T04:58:54;19.20;99.90
7496;DHT22;3789;47.064;15.482;2022-08-19T05:01:34;19.20;99.90
7496;DHT22;3789;47.064;15.482;2022-08-19T05:04:06;19.20;99.90
7496;DHT22;3789;47.064;15.482;2022-08-19T05:06:35;19.30;99.90
7496;DHT22;3789;47.064;15.482;2022-08-19T05:09:08;19.40;99.90
7496;DHT22;3789;47.064;15.482;2022-08-19T05:11:37;19.40;99.90
7496;DHT22;3789;47.064;15.482;2022-08-19T05:14:09;19.60;99.90
7496;DHT22;3789;47.064;15.482;2022-08-19T05:16:43;19.70;99.90
7496;DHT22;3789;47.064;15.482;2022-08-19T05:19:10;19.80;99.90
7496;DHT22;3789;47.064;15.482;2022-08-19T05:22:01;19.90;99.90
7496;DHT22;3789;47.064;15.482;2022-08-19T05:24:49;20.10;99.90
7496;DHT22;3789;47.064;15.482;2022-08-19T05:27:40;20.10;99.90
7496;DHT22;3789;47.064;15.482;2022-08-19T05:30:14;20.10;99.90
7496;DHT22;3789;47.064;15.482;2022-08-19T05:32:42;20.10;99.90
7496;DHT22;3789;47.064;15.482;2022-08-19T05:35:10;20.10;99.90
7496;DHT22;3789;47.064;15.482;2022-08-19T05:37:48;20.10;99.90
7496;DHT22;3789;47.064;15.482;2022-08-19T05:40:20;20.10;99.90
7496;DHT22;3789;47.064;15.482;2022-08-19T05:42:54;20.10;99.90
7496;DHT22;3789;47.064;15.482;2022-08-19T05:45:22;20.20;99.90
7496;DHT22;3789;47.064;15.482;2022-08-19T05:47:52;20.40;99.90
7496;DHT22;3789;47.064;15.482;2022-08-19T05:50:20;20.60;99.90
7496;DHT22;3789;47.064;15.482;2022-08-19T05:52:57;20.80;99.90
7496;DHT22;3789;47.064;15.482;2022-08-19T05:55:27;20.90;99.90
7496;DHT22;3789;47.064;15.482;2022-08-19T05:57:54;21.10;99.90
7496;DHT22;3789;47.064;15.482;2022-08-19T06:00:24;21.20;99.90
7496;DHT22;3789;47.064;15.482;2022-08-19T06:03:01;21.40;99.90
7496;DHT22;3789;47.064;15.482;2022-08-19T06:05:41;21.40;99.90
7496;DHT22;3789;47.064;15.482;2022-08-19T06:08:18;21.40;99.90
7496;DHT22;3789;47.064;15.482;2022-08-19T06:11:31;21.50;99.90
7496;DHT22;3789;47.064;15.482;2022-08-19T06:14:06;21.40;99.90
7496;DHT22;3789;47.064;15.482;2022-08-19T06:16:45;21.50;99.90
7496;DHT22;3789;47.064;15.482;2022-08-19T06:19:26;21.50;99.90
7496;DHT22;3789;47.064;15.482;2022-08-19T06:21:59;21.50;99.90
7496;DHT22;3789;47.064;15.482;2022-08-19T06:24:30;21.50;99.90
7496;DHT22;3789;47.064;15.482;2022-08-19T06:27:00;21.50;99.90
7496;DHT22;3789;47.064;15.482;2022-08-19T06:29:30;21.50;99.90
7496;DHT22;3789;47.064;15.482;2022-08-19T06:32:04;21.60;99.90
7496;DHT22;3789;47.064;15.482;2022-08-19T06:34:34;21.70;99.90
7496;DHT22;3789;47.064;15.482;2022-08-19T06:37:03;21.90;99.90
7496;DHT22;3789;47.064;15.482;2022-08-19T06:39:41;22.00;99.90
7496;DHT22;3789;47.064;15.482;2022-08-19T06:42:11;22.20;99.90
7496;DHT22;3789;47.064;15.482;2022-08-19T06:44:51;22.40;99.90
7496;DHT22;3789;47.064;15.482;2022-08-19T06:47:21;22.60;99.90
7496;DHT22;3789;47.064;15.482;2022-08-19T06:49:58;22.80;99.90
7496;DHT22;3789;47.064;15.482;2022-08-19T06:52:35;23.10;99.90
7496;DHT22;3789;47.064;15.482;2022-08-19T06:55:06;23.40;99.90
7496;DHT22;3789;47.064;15.482;2022-08-19T06:57:38;23.50;99.90
7496;DHT22;3789;47.064;15.482;2022-08-19T07:00:09;23.50;99.90
7496;DHT22;3789;47.064;15.482;2022-08-19T07:02:45;23.60;99.90
7496;DHT22;3789;47.064;15.482;2022-08-19T07:05:26;23.60;99.90
7496;DHT22;3789;47.064;15.482;2022-08-19T07:07:55;23.70;99.90
7496;DHT22;3789;47.064;15.482;2022-08-19T07:10:34;23.70;99.90
7496;DHT22;3789;47.064;15.482;2022-08-19T07:13:11;23.70;99.90
7496;DHT22;3789;47.064;15.482;2022-08-19T07:15:39;23.50;99.90
7496;DHT22;3789;47.064;15.482;2022-08-19T07:18:08;23.40;99.90
7496;DHT22;3789;47.064;15.482;2022-08-19T07:20:46;23.50;99.90
7496;DHT22;3789;47.064;15.482;2022-08-19T07:23:21;23.40;99.90
7496;DHT22;3789;47.064;15.482;2022-08-19T07:25:50;23.20;99.90
7496;DHT22;3789;47.064;15.482;2022-08-19T07:28:20;23.00;99.90
7496;DHT22;3789;47.064;15.482;2022-08-19T07:30:53;23.10;99.90
7496;DHT22;3789;47.064;15.482;2022-08-19T07:33:23;23.00;99.90
7496;DHT22;3789;47.064;15.482;2022-08-19T07:35:56;22.90;99.90
7496;DHT22;3789;47.064;15.482;2022-08-19T07:38:33;22.70;99.90
7496;DHT22;3789;47.064;15.482;2022-08-19T07:41:15;22.70;99.90
7496;DHT22;3789;47.064;15.482;2022-08-19T07:43:44;22.60;99.90
7496;DHT22;3789;47.064;15.482;2022-08-19T07:46:20;22.50;99.90
7496;DHT22;3789;47.064;15.482;2022-08-19T07:48:52;22.10;99.90
7496;DHT22;3789;47.064;15.482;2022-08-19T07:51:30;22.30;99.90
7496;DHT22;3789;47.064;15.482;2022-08-19T07:54:04;22.40;99.90
7496;DHT22;3789;47.064;15.482;2022-08-19T07:56:33;22.20;99.90
7496;DHT22;3789;47.064;15.482;2022-08-19T07:59:01;21.90;99.90
7496;DHT22;3789;47.064;15.482;2022-08-19T08:01:31;21.90;99.90
7496;DHT22;3789;47.064;15.482;2022-08-19T08:04:09;22.00;99.90
7496;DHT22;3789;47.064;15.482;2022-08-19T08:06:57;22.10;99.90
7496;DHT22;3789;47.064;15.482;2022-08-19T08:09:48;22.10;99.90
7496;DHT22;3789;47.064;15.482;2022-08-19T08:12:38;22.00;99.90
7496;DHT22;3789;47.064;15.482;2022-08-19T08:15:19;22.00;99.90
7496;DHT22;3789;47.064;15.482;2022-08-19T08:17:51;21.70;99.90
7496;DHT22;3789;47.064;15.482;2022-08-19T08:20:21;21.50;99.90
7496;DHT22;3789;47.064;15.482;2022-08-19T08:22:50;21.50;99.90
7496;DHT22;3789;47.064;15.482;2022-08-19T08:25:39;21.30;99.90
7496;DHT22;3789;47.064;15.482;2022-08-19T08:28:17;20.90;99.90
7496;DHT22;3789;47.064;15.482;2022-08-19T08:30:47;20.60;99.90
7496;DHT22;3789;47.064;15.482;2022-08-19T08:33:24;20.50;99.90
7496;DHT22;3789;47.064;15.482;2022-08-19T08:36:06;20.40;99.90
7496;DHT22;3789;47.064;15.482;2022-08-19T08:38:36;20.20;99.90
7496;DHT22;3789;47.064;15.482;2022-08-19T08:41:36;20.00;99.90
7496;DHT22;3789;47.064;15.482;2022-08-19T08:44:16;19.90;99.90
7496;DHT22;3789;47.064;15.482;2022-08-19T08:47:00;20.20;99.90
7496;DHT22;3789;47.064;15.482;2022-08-19T08:50:06;20.50;99.90
7496;DHT22;3789;47.064;15.482;2022-08-19T08:52:55;20.40;99.90
7496;DHT22;3789;47.064;15.482;2022-08-19T08:55:27;19.80;99.90
7496;DHT22;3789;47.064;15.482;2022-08-19T08:58:06;19.80;99.90
7496;DHT22;3789;47.064;15.482;2022-08-19T09:00:40;20.00;99.90
7496;DHT22;3789;47.064;15.482;2022-08-19T09:09:12;20.70;99.90
7496;DHT22;3789;47.064;15.482;2022-08-19T09:15:05;21.40;99.90
7496;DHT22;3789;47.064;15.482;2022-08-19T09:17:32;21.50;99.90
7496;DHT22;3789;47.064;15.482;2022-08-19T09:22:36;21.80;99.90
7496;DHT22;3789;47.064;15.482;2022-08-19T09:25:05;22.00;99.90
7496;DHT22;3789;47.064;15.482;2022-08-19T09:27:33;22.00;99.90
7496;DHT22;3789;47.064;15.482;2022-08-19T09:30:12;21.90;99.90
7496;DHT22;3789;47.064;15.482;2022-08-19T09:32:40;21.40;99.90
7496;DHT22;3789;47.064;15.482;2022-08-19T09:35:09;21.30;99.90
7496;DHT22;3789;47.064;15.482;2022-08-19T09:37:37;21.40;99.90
7496;DHT22;3789;47.064;15.482;2022-08-19T09:40:06;21.60;99.90
7496;DHT22;3789;47.064;15.482;2022-08-19T09:42:37;21.90;99.90
7496;DHT22;3789;47.064;15.482;2022-08-19T09:45:17;22.40;99.90
7496;DHT22;3789;47.064;15.482;2022-08-19T09:47:50;22.90;99.90
7496;DHT22;3789;47.064;15.482;2022-08-19T09:50:21;23.40;99.90
7496;DHT22;3789;47.064;15.482;2022-08-19T09:52:49;23.60;99.90
7496;DHT22;3789;47.064;15.482;2022-08-19T09:55:24;23.40;99.90
7496;DHT22;3789;47.064;15.482;2022-08-19T09:57:57;23.10;99.90
7496;DHT22;3789;47.064;15.482;2022-08-19T10:00:39;22.90;99.90
7496;DHT22;3789;47.064;15.482;2022-08-19T10:03:06;22.60;99.90
7496;DHT22;3789;47.064;15.482;2022-08-19T10:05:34;22.60;99.90
7496;DHT22;3789;47.064;15.482;2022-08-19T10:08:23;23.00;99.90
7496;DHT22;3789;47.064;15.482;2022-08-19T10:10:53;23.30;99.90
7496;DHT22;3789;47.064;15.482;2022-08-19T10:13:23;23.60;99.90
7496;DHT22;3789;47.064;15.482;2022-08-19T10:15:53;23.80;99.90
7496;DHT22;3789;47.064;15.482;2022-08-19T10:18:23;24.00;99.90
7496;DHT22;3789;47.064;15.482;2022-08-19T10:21:01;24.00;99.90
7496;DHT22;3789;47.064;15.482;2022-08-19T10:23:29;24.10;99.90
7496;DHT22;3789;47.064;15.482;2022-08-19T10:26:00;24.00;99.90
7496;DHT22;3789;47.064;15.482;2022-08-19T10:28:27;23.90;99.90
7496;DHT22;3789;47.064;15.482;2022-08-19T10:30:56;23.70;99.90
7496;DHT22;3789;47.064;15.482;2022-08-19T10:33:23;23.50;99.90
7496;DHT22;3789;47.064;15.482;2022-08-19T10:36:10;23.40;99.90
7496;DHT22;3789;47.064;15.482;2022-08-19T10:38:37;23.10;99.90
7496;DHT22;3789;47.064;15.482;2022-08-19T10:41:24;23.00;99.90
7496;DHT22;3789;47.064;15.482;2022-08-19T10:43:56;23.00;99.90
7496;DHT22;3789;47.064;15.482;2022-08-19T10:46:30;23.10;99.90
7496;DHT22;3789;47.064;15.482;2022-08-19T10:49:00;23.40;99.90
7496;DHT22;3789;47.064;15.482;2022-08-19T10:51:28;23.70;99.90
7496;DHT22;3789;47.064;15.482;2022-08-19T10:54:16;23.90;99.90
7496;DHT22;3789;47.064;15.482;2022-08-19T10:56:58;24.20;99.90
7496;DHT22;3789;47.064;15.482;2022-08-19T10:59:29;24.40;99.90
7496;DHT22;3789;47.064;15.482;2022-08-19T11:02:05;24.50;99.90
7496;DHT22;3789;47.064;15.482;2022-08-19T11:04:43;24.70;99.90
7496;DHT22;3789;47.064;15.482;2022-08-19T11:07:12;24.70;99.90
7496;DHT22;3789;47.064;15.482;2022-08-19T11:09:41;24.70;99.90
7496;DHT22;3789;47.064;15.482;2022-08-19T11:12:09;24.80;99.90
7496;DHT22;3789;47.064;15.482;2022-08-19T11:14:37;25.00;99.90
7496;DHT22;3789;47.064;15.482;2022-08-19T11:17:05;24.90;99.90
7496;DHT22;3789;47.064;15.482;2022-08-19T11:19:32;24.30;99.90
7496;DHT22;3789;47.064;15.482;2022-08-19T11:22:00;24.10;99.90
7496;DHT22;3789;47.064;15.482;2022-08-19T11:24:30;24.30;99.90
7496;DHT22;3789;47.064;15.482;2022-08-19T11:27:05;24.50;99.90
7496;DHT22;3789;47.064;15.482;2022-08-19T11:29:33;24.80;99.90
7496;DHT22;3789;47.064;15.482;2022-08-19T11:32:04;24.80;99.90
7496;DHT22;3789;47.064;15.482;2022-08-19T11:34:32;24.80;99.90
7496;DHT22;3789;47.064;15.482;2022-08-19T11:36:59;24.70;99.90
7496;DHT22;3789;47.064;15.482;2022-08-19T11:39:29;24.20;99.90
7496;DHT22;3789;47.064;15.482;2022-08-19T11:42:01;24.20;99.90
7496;DHT22;3789;47.064;15.482;2022-08-19T11:44:29;24.50;99.90
7496;DHT22;3789;47.064;15.482;2022-08-19T11:46:57;24.70;99.90
7496;DHT22;3789;47.064;15.482;2022-08-19T11:49:34;24.90;99.90
7496;DHT22;3789;47.064;15.482;2022-08-19T11:52:02;24.90;99.90
7496;DHT22;3789;47.064;15.482;2022-08-19T11:54:30;25.20;99.90
7496;DHT22;3789;47.064;15.482;2022-08-19T11:56:57;25.40;99.90
7496;DHT22;3789;47.064;15.482;2022-08-19T11:59:24;25.40;99.90
7496;DHT22;3789;47.064;15.482;2022-08-19T12:01:55;25.30;99.90
7496;DHT22;3789;47.064;15.482;2022-08-19T12:04:22;25.20;99.90
7496;DHT22;3789;47.064;15.482;2022-08-19T12:06:51;24.90;99.90
7496;DHT22;3789;47.064;15.482;2022-08-19T12:09:19;25.00;99.90
7496;DHT22;3789;47.064;15.482;2022-08-19T12:11:50;25.10;99.90
7496;DHT22;3789;47.064;15.482;2022-08-19T12:14:17;25.30;99.90
7496;DHT22;3789;47.064;15.482;2022-08-19T12:16:45;25.30;99.90
7496;DHT22;3789;47.064;15.482;2022-08-19T12:19:18;25.40;99.90
7496;DHT22;3789;47.064;15.482;2022-08-19T12:21:49;25.60;99.90
7496;DHT22;3789;47.064;15.482;2022-08-19T12:24:16;25.90;99.90
7496;DHT22;3789;47.064;15.482;2022-08-19T12:26:50;25.90;99.90
7496;DHT22;3789;47.064;15.482;2022-08-19T12:29:20;26.00;99.90
7496;DHT22;3789;47.064;15.482;2022-08-19T12:31:50;25.90;99.90
7496;DHT22;3789;47.064;15.482;2022-08-19T12:34:17;25.90;99.90
7496;DHT22;3789;47.064;15.482;2022-08-19T12:36:46;25.80;99.90
7496;DHT22;3789;47.064;15.482;2022-08-19T12:39:16;26.00;99.90
7496;DHT22;3789;47.064;15.482;2022-08-19T12:41:43;25.60;99.90
7496;DHT22;3789;47.064;15.482;2022-08-19T12:44:21;25.20;99.90
7496;DHT22;3789;47.064;15.482;2022-08-19T12:46:58;25.00;99.90
7496;DHT22;3789;47.064;15.482;2022-08-19T12:49:28;25.20;99.90
7496;DHT22;3789;47.064;15.482;2022-08-19T12:52:15;25.30;99.90
7496;DHT22;3789;47.064;15.482;2022-08-19T12:54:49;25.60;99.90
7496;DHT22;3789;47.064;15.482;2022-08-19T12:57:24;25.90;99.90
7496;DHT22;3789;47.064;15.482;2022-08-19T13:00:03;26.10;99.90
7496;DHT22;3789;47.064;15.482;2022-08-19T13:02:32;26.30;99.90
7496;DHT22;3789;47.064;15.482;2022-08-19T13:05:06;26.40;99.90
7496;DHT22;3789;47.064;15.482;2022-08-19T13:07:35;26.50;99.90
7496;DHT22;3789;47.064;15.482;2022-08-19T13:10:09;26.50;99.90
7496;DHT22;3789;47.064;15.482;2022-08-19T13:12:38;26.30;99.90
7496;DHT22;3789;47.064;15.482;2022-08-19T13:15:06;26.40;99.90
7496;DHT22;3789;47.064;15.482;2022-08-19T13:17:37;26.30;99.90
7496;DHT22;3789;47.064;15.482;2022-08-19T13:20:08;26.20;99.90
7496;DHT22;3789;47.064;15.482;2022-08-19T13:22:36;26.30;99.90
7496;DHT22;3789;47.064;15.482;2022-08-19T13:25:05;26.40;99.90
7496;DHT22;3789;47.064;15.482;2022-08-19T13:27:33;26.40;99.90
7496;DHT22;3789;47.064;15.482;2022-08-19T13:30:01;26.30;99.90
7496;DHT22;3789;47.064;15.482;2022-08-19T13:32:47;26.30;99.90
7496;DHT22;3789;47.064;15.482;2022-08-19T13:35:33;26.20;99.90
7496;DHT22;3789;47.064;15.482;2022-08-19T13:38:00;26.10;99.90
7496;DHT22;3789;47.064;15.482;2022-08-19T13:40:38;26.20;99.90
7496;DHT22;3789;47.064;15.482;2022-08-19T13:43:07;26.20;99.90
7496;DHT22;3789;47.064;15.482;2022-08-19T13:45:50;26.00;99.90
7496;DHT22;3789;47.064;15.482;2022-08-19T13:48:21;26.00;99.90
7496;DHT22;3789;47.064;15.482;2022-08-19T13:50:48;26.20;99.90
7496;DHT22;3789;47.064;15.482;2022-08-19T13:53:16;26.40;99.90
7496;DHT22;3789;47.064;15.482;2022-08-19T13:55:44;26.40;99.90
7496;DHT22;3789;47.064;15.482;2022-08-19T13:58:12;26.20;99.80
7496;DHT22;3789;47.064;15.482;2022-08-19T14:01:03;25.90;99.90
7496;DHT22;3789;47.064;15.482;2022-08-19T14:03:32;25.80;99.60
7496;DHT22;3789;47.064;15.482;2022-08-19T14:05:59;26.10;99.90
7496;DHT22;3789;47.064;15.482;2022-08-19T14:08:28;26.30;99.90
7496;DHT22;3789;47.064;15.482;2022-08-19T14:10:55;26.30;99.90
7496;DHT22;3789;47.064;15.482;2022-08-19T14:13:23;26.30;99.60
7496;DHT22;3789;47.064;15.482;2022-08-19T14:15:50;26.40;99.80
7496;DHT22;3789;47.064;15.482;2022-08-19T14:18:18;26.50;99.90
7496;DHT22;3789;47.064;15.482;2022-08-19T14:20:47;26.70;99.90
7496;DHT22;3789;47.064;15.482;2022-08-19T14:23:16;26.90;99.90
7496;DHT22;3789;47.064;15.482;2022-08-19T14:25:46;27.10;99.70
7496;DHT22;3789;47.064;15.482;2022-08-19T14:28:16;27.10;99.50
7496;DHT22;3789;47.064;15.482;2022-08-19T14:30:45;27.00;99.70
7496;DHT22;3789;47.064;15.482;2022-08-19T14:33:12;27.00;99.90
7496;DHT22;3789;47.064;15.482;2022-08-19T14:35:42;26.80;99.00
7496;DHT22;3789;47.064;15.482;2022-08-19T14:38:18;26.70;99.40
7496;DHT22;3789;47.064;15.482;2022-08-19T14:41:16;26.80;99.00
7496;DHT22;3789;47.064;15.482;2022-08-19T14:43:53;26.90;99.00
7496;DHT22;3789;47.064;15.482;2022-08-19T14:46:27;27.00;98.30
7496;DHT22;3789;47.064;15.482;2022-08-19T14:48:58;26.90;98.20
7496;DHT22;3789;47.064;15.482;2022-08-19T14:51:29;27.00;98.10
7496;DHT22;3789;47.064;15.482;2022-08-19T14:53:57;26.90;97.70
7496;DHT22;3789;47.064;15.482;2022-08-19T14:56:46;27.00;98.00
7496;DHT22;3789;47.064;15.482;2022-08-19T14:59:16;27.10;98.10
7496;DHT22;3789;47.064;15.482;2022-08-19T15:01:46;27.30;98.60
7496;DHT22;3789;47.064;15.482;2022-08-19T15:04:23;27.40;98.40
7496;DHT22;3789;47.064;15.482;2022-08-19T15:06:56;27.60;97.80
7496;DHT22;3789;47.064;15.482;2022-08-19T15:09:23;27.60;98.00
7496;DHT22;3789;47.064;15.482;2022-08-19T15:11:54;27.50;97.60
7496;DHT22;3789;47.064;15.482;2022-08-19T15:14:23;27.10;97.70
7496;DHT22;3789;47.064;15.482;2022-08-19T15:16:53;26.80;98.20
7496;DHT22;3789;47.064;15.482;2022-08-19T15:19:22;26.60;98.20
7496;DHT22;3789;47.064;15.482;2022-08-19T15:21:51;26.90;98.90
7496;DHT22;3789;47.064;15.482;2022-08-19T15:24:22;26.90;98.00
7496;DHT22;3789;47.064;15.482;2022-08-19T15:26:54;26.90;97.80
7496;DHT22;3789;47.064;15.482;2022-08-19T15:29:22;26.80;98.50
7496;DHT22;3789;47.064;15.482;2022-08-19T15:31:54;26.70;98.30
7496;DHT22;3789;47.064;15.482;2022-08-19T15:34:33;26.50;98.60
7496;DHT22;3789;47.064;15.482;2022-08-19T15:37:10;26.20;98.70
7496;DHT22;3789;47.064;15.482;2022-08-19T15:39:40;26.00;99.00
7496;DHT22;3789;47.064;15.482;2022-08-19T15:42:09;25.80;98.80
7496;DHT22;3789;47.064;15.482;2022-08-19T15:44:57;25.80;99.20
7496;DHT22;3789;47.064;15.482;2022-08-19T15:47:30;25.70;99.40
7496;DHT22;3789;47.064;15.482;2022-08-19T15:50:08;25.60;99.90
7496;DHT22;3789;47.064;15.482;2022-08-19T15:52:49;25.60;99.90
7496;DHT22;3789;47.064;15.482;2022-08-19T15:55:24;25.50;99.50
7496;DHT22;3789;47.064;15.482;2022-08-19T15:58:07;25.50;99.90
7496;DHT22;3789;47.064;15.482;2022-08-19T16:01:04;25.60;99.90
7496;DHT22;3789;47.064;15.482;2022-08-19T16:03:54;25.60;99.90
7496;DHT22;3789;47.064;15.482;2022-08-19T16:06:52;25.70;99.90
7496;DHT22;3789;47.064;15.482;2022-08-19T16:09:28;25.70;99.90
7496;DHT22;3789;47.064;15.482;2022-08-19T16:12:02;25.70;99.90
7496;DHT22;3789;47.064;15.482;2022-08-19T16:14:33;25.60;99.90
7496;DHT22;3789;47.064;15.482;2022-08-19T16:17:03;25.50;99.90
7496;DHT22;3789;47.064;15.482;2022-08-19T16:19:35;25.40;99.90
7496;DHT22;3789;47.064;15.482;2022-08-19T16:22:05;25.30;99.90
7496;DHT22;3789;47.064;15.482;2022-08-19T16:24:40;25.20;99.90
7496;DHT22;3789;47.064;15.482;2022-08-19T16:27:12;25.20;99.90
7496;DHT22;3789;47.064;15.482;2022-08-19T16:29:49;25.10;99.90
7496;DHT22;3789;47.064;15.482;2022-08-19T16:32:19;25.10;99.90
7496;DHT22;3789;47.064;15.482;2022-08-19T16:34:46;25.10;99.90
7496;DHT22;3789;47.064;15.482;2022-08-19T16:37:19;25.20;99.90
7496;DHT22;3789;47.064;15.482;2022-08-19T16:39:52;25.20;99.90